Time;durP1;ratioP1;P1;durP2;ratioP2;P2;SDS_P1;SDS_P2;PMS_P1;PMS_P2;Temp;Humidity;BMP_temperature;BMP_pressure;BME280_temperature;BME280_humidity;BME280_pressure;Samples;Min_cycle;Max_cycle;Signal;HPM_P1;HPM_P2
2022/10/03 00:02:35;;;;;;;18.23;9.70;;;18.80;64.80;;;;;;5034348;28;20222;-58
2022/10/03 00:05:22;;;;;;;17.45;9.40;;;18.80;64.80;;;;;;5034643;28;20184;-57
2022/10/03 00:08:01;;;;;;;16.05;9.15;;;18.80;64.80;;;;;;5034422;28;20200;-58
2022/10/03 00:10:33;;;;;;;15.25;8.45;;;18.80;64.80;;;;;;5016544;28;20184;-57
2022/10/03 00:13:08;;;;;;;14.73;9.20;;;18.70;64.70;;;;;;5016399;28;20188;-58
2022/10/03 00:15:37;;;;;;;16.45;9.07;;;18.70;64.70;;;;;;5016473;28;20219;-58
2022/10/03 00:18:12;;;;;;;13.23;7.97;;;18.70;64.60;;;;;;5033970;28;20578;-57
2022/10/03 00:20:46;;;;;;;15.10;8.52;;;18.70;64.70;;;;;;5016215;28;20188;-57
2022/10/03 00:23:15;;;;;;;14.05;7.78;;;18.70;64.70;;;;;;5034263;28;20239;-58
2022/10/03 00:25:45;;;;;;;15.82;8.88;;;18.60;64.50;;;;;;5015975;28;20222;-57
2022/10/03 00:28:20;;;;;;;16.27;8.52;;;18.70;64.60;;;;;;5016065;28;20666;-57
2022/10/03 00:31:04;;;;;;;13.38;8.52;;;18.60;64.40;;;;;;5016209;28;20223;-57
2022/10/03 00:33:35;;;;;;;15.52;8.70;;;18.70;64.60;;;;;;5015970;28;20200;-57
2022/10/03 00:36:06;;;;;;;13.65;8.88;;;18.60;64.60;;;;;;5033616;28;20212;-57
2022/10/03 00:38:52;;;;;;;17.42;8.52;;;18.60;64.60;;;;;;5016032;28;20246;-58
2022/10/03 00:41:28;;;;;;;14.13;8.07;;;18.60;64.50;;;;;;5033824;28;20511;-58
2022/10/03 00:44:18;;;;;;;13.40;7.75;;;18.60;64.50;;;;;;5033941;28;20176;-57
2022/10/03 00:47:02;;;;;;;11.32;6.95;;;18.60;64.40;;;;;;5015698;28;20220;-57
2022/10/03 00:49:39;;;;;;;13.90;7.50;;;18.60;64.10;;;;;;5015784;28;20196;-58
2022/10/03 00:52:23;;;;;;;10.90;7.55;;;18.60;64.10;;;;;;5015717;28;20210;-58
2022/10/03 00:54:58;;;;;;;12.32;7.40;;;18.50;63.90;;;;;;5033435;28;20642;-57
2022/10/03 00:57:34;;;;;;;13.32;7.30;;;18.50;64.10;;;;;;5033579;28;20570;-57
2022/10/03 01:00:15;;;;;;;11.00;7.18;;;18.50;64.00;;;;;;5033251;28;20180;-57
2022/10/03 01:02:47;;;;;;;12.73;8.05;;;18.50;64.00;;;;;;5033024;28;20212;-57
2022/10/03 01:05:20;;;;;;;11.93;7.25;;;18.50;63.90;;;;;;5032364;28;20231;-58
2022/10/03 01:08:10;;;;;;;11.68;6.90;;;18.50;64.00;;;;;;5033172;28;20176;-57
2022/10/03 01:10:41;;;;;;;12.13;7.07;;;18.50;63.90;;;;;;5015342;28;20254;-58
2022/10/03 01:13:17;;;;;;;13.80;7.22;;;18.50;63.80;;;;;;5033111;28;20264;-58
2022/10/03 01:15:49;;;;;;;11.95;7.13;;;18.50;63.50;;;;;;5015372;28;20692;-57
2022/10/03 01:18:23;;;;;;;10.05;6.57;;;18.50;63.80;;;;;;5033516;28;20188;-58
2022/10/03 01:20:57;;;;;;;11.00;6.50;;;18.50;63.50;;;;;;5033310;28;20191;-57
2022/10/03 01:23:47;;;;;;;9.15;5.80;;;18.50;63.50;;;;;;5015380;28;20211;-57
2022/10/03 01:26:25;;;;;;;10.15;6.85;;;18.50;63.40;;;;;;5005504;28;20232;-57
2022/10/03 01:31:43;;;;;;;11.13;6.28;;;18.50;63.30;;;;;;5015893;28;20554;-57
2022/10/03 01:34:13;;;;;;;10.82;6.75;;;18.50;63.20;;;;;;5033642;28;20575;-58
2022/10/03 01:36:43;;;;;;;9.55;5.95;;;18.50;63.30;;;;;;5033464;28;20689;-57
2022/10/03 01:39:14;;;;;;;9.85;5.95;;;18.50;63.10;;;;;;5034671;28;20669;-57
2022/10/03 01:41:47;;;;;;;9.45;6.63;;;18.50;63.10;;;;;;5021191;28;20564;-57
2022/10/03 01:44:18;;;;;;;9.65;5.70;;;18.50;63.20;;;;;;5017840;28;20184;-58
2022/10/03 01:46:47;;;;;;;9.43;5.60;;;18.50;63.10;;;;;;5032732;28;20608;-58
2022/10/03 01:49:17;;;;;;;7.88;5.25;;;18.50;63.00;;;;;;5033814;28;20188;-58
2022/10/03 01:51:48;;;;;;;9.82;6.47;;;18.50;62.90;;;;;;5033875;28;20188;-57
2022/10/03 01:54:18;;;;;;;10.18;6.00;;;18.50;63.00;;;;;;5016078;28;20199;-57
2022/10/03 01:56:51;;;;;;;9.98;6.20;;;18.50;62.80;;;;;;5015782;28;20736;-58
2022/10/03 01:59:23;;;;;;;9.23;5.90;;;18.50;63.00;;;;;;5047952;28;20179;-58
2022/10/03 02:01:51;;;;;;;7.90;5.68;;;18.50;62.80;;;;;;5015232;28;20211;-57
2022/10/03 02:04:27;;;;;;;8.80;6.07;;;18.50;63.70;;;;;;5033001;28;20191;-57
2022/10/03 02:06:59;;;;;;;9.93;6.03;;;18.50;62.80;;;;;;5032819;28;20215;-58
2022/10/03 02:09:29;;;;;;;8.95;5.63;;;18.50;62.60;;;;;;5032836;28;20207;-57
2022/10/03 02:12:10;;;;;;;7.50;5.38;;;18.50;62.60;;;;;;5015007;28;20196;-58
2022/10/03 02:14:57;;;;;;;8.95;5.80;;;18.50;62.60;;;;;;5014899;28;20194;-57
2022/10/03 02:17:29;;;;;;;8.43;5.68;;;18.50;62.60;;;;;;5031340;28;20295;-58
2022/10/03 02:20:00;;;;;;;11.75;6.25;;;18.50;62.90;;;;;;5037333;28;20551;-57
2022/10/03 02:22:33;;;;;;;9.73;5.68;;;18.50;62.70;;;;;;5036493;28;20571;-58
2022/10/03 02:25:09;;;;;;;8.57;5.53;;;18.50;62.80;;;;;;5036429;28;20283;-57
2022/10/03 02:27:49;;;;;;;9.38;5.85;;;18.50;62.60;;;;;;5036696;28;20180;-57
2022/10/03 02:30:20;;;;;;;7.95;5.35;;;18.50;62.60;;;;;;5030200;28;20212;-57
2022/10/03 02:33:25;;;;;;;10.38;5.65;;;18.50;62.60;;;;;;5036748;28;20181;-58
2022/10/03 02:36:27;;;;;;;7.68;5.40;;;18.50;62.60;;;;;;5036960;28;20315;-57
2022/10/03 02:39:16;;;;;;;8.98;6.00;;;18.50;62.60;;;;;;5017766;28;20204;-58
2022/10/03 02:42:01;;;;;;;9.30;5.40;;;18.50;62.60;;;;;;5036482;28;20641;-59
2022/10/03 02:45:01;;;;;;;8.93;5.20;;;18.50;62.50;;;;;;5036388;28;20180;-58
2022/10/03 02:47:58;;;;;;;7.72;5.18;;;18.50;62.30;;;;;;5033903;28;20828;-58
2022/10/03 02:50:43;;;;;;;7.53;5.25;;;18.50;62.20;;;;;;5011127;28;20568;-58
2022/10/03 02:53:44;;;;;;;6.28;5.00;;;18.40;62.00;;;;;;5035975;28;20529;-57
2022/10/03 02:56:56;;;;;;;7.15;5.30;;;18.40;62.00;;;;;;5035676;28;20603;-57
2022/10/03 02:59:55;;;;;;;8.73;5.18;;;18.40;61.90;;;;;;5000422;28;20208;-57
2022/10/03 03:02:45;;;;;;;7.32;4.80;;;18.40;61.90;;;;;;5035496;28;20206;-57
2022/10/03 03:05:25;;;;;;;7.22;5.05;;;18.40;61.80;;;;;;5017857;28;20218;-57
2022/10/03 03:08:34;;;;;;;8.68;5.25;;;18.40;61.60;;;;;;5018519;28;20716;-58
2022/10/03 03:11:24;;;;;;;6.95;5.05;;;18.50;61.70;;;;;;5006694;28;20204;-57
2022/10/03 03:14:17;;;;;;;6.70;4.90;;;18.50;62.00;;;;;;5034024;28;20283;-57
2022/10/03 03:16:56;;;;;;;8.25;5.47;;;18.40;62.00;;;;;;5035279;28;20581;-56
2022/10/03 03:19:46;;;;;;;8.38;5.25;;;18.40;62.10;;;;;;5017481;28;20579;-57
2022/10/03 03:22:26;;;;;;;8.80;5.65;;;18.50;62.60;;;;;;5033785;28;20200;-57
2022/10/03 03:25:16;;;;;;;7.30;4.90;;;18.50;62.50;;;;;;5035170;28;20180;-56
2022/10/03 03:27:47;;;;;;;8.35;5.60;;;18.50;62.60;;;;;;5034466;28;20177;-57
2022/10/03 03:30:16;;;;;;;8.23;5.70;;;18.50;62.60;;;;;;5017472;28;20634;-57
2022/10/03 03:32:55;;;;;;;7.38;5.07;;;18.50;62.60;;;;;;5034982;28;20207;-57
2022/10/03 03:35:28;;;;;;;6.68;5.30;;;18.60;62.30;;;;;;5017049;28;20211;-57
2022/10/03 03:38:03;;;;;;;6.38;4.97;;;18.70;62.30;;;;;;5017802;28;20196;-58
2022/10/03 03:40:39;;;;;;;7.80;5.72;;;18.70;61.80;;;;;;5017199;28;20282;-57
2022/10/03 03:43:18;;;;;;;7.80;5.15;;;18.70;61.70;;;;;;5034920;28;20196;-57
2022/10/03 03:45:55;;;;;;;8.15;4.95;;;18.70;61.70;;;;;;5034702;28;20563;-57
2022/10/03 03:48:46;;;;;;;6.75;4.93;;;18.80;61.40;;;;;;5034826;28;20271;-57
2022/10/03 03:51:22;;;;;;;5.88;4.97;;;18.80;61.50;;;;;;5017137;28;20196;-57
2022/10/03 03:54:23;;;;;;;8.10;4.90;;;18.80;61.30;;;;;;5017060;28;20253;-57
2022/10/03 03:57:00;;;;;;;5.75;4.60;;;18.80;61.10;;;;;;5010095;28;20310;-58
2022/10/03 03:59:36;;;;;;;7.70;5.10;;;18.80;61.00;;;;;;5016828;28;20187;-57
2022/10/03 04:02:11;;;;;;;6.95;4.97;;;18.90;61.00;;;;;;5035027;28;20195;-57
2022/10/03 04:04:44;;;;;;;8.07;5.35;;;18.90;60.80;;;;;;5034405;28;20566;-57
2022/10/03 04:07:18;;;;;;;7.30;5.10;;;18.90;60.50;;;;;;5027093;28;20212;-57
2022/10/03 04:09:54;;;;;;;7.65;4.90;;;18.90;60.50;;;;;;5034712;28;20183;-57
2022/10/03 04:12:30;;;;;;;8.65;5.18;;;18.90;60.40;;;;;;5016605;28;20286;-57
2022/10/03 04:15:19;;;;;;;7.13;5.45;;;18.90;60.40;;;;;;5016435;28;20213;-57
2022/10/03 04:21:04;;;;;;;6.43;4.57;;;18.90;60.50;;;;;;5034509;28;20180;-57
2022/10/03 04:23:43;;;;;;;7.10;5.15;;;18.90;60.40;;;;;;5034298;28;20212;-57
2022/10/03 04:26:20;;;;;;;6.40;4.82;;;18.80;60.30;;;;;;5016571;28;20315;-57
2022/10/03 04:29:11;;;;;;;7.28;5.00;;;18.80;60.40;;;;;;5034376;28;20176;-57
2022/10/03 04:31:42;;;;;;;7.53;4.88;;;18.90;60.70;;;;;;5016362;28;20200;-57
2022/10/03 04:34:21;;;;;;;7.40;4.63;;;18.80;60.60;;;;;;5034069;28;20189;-57
2022/10/03 04:37:18;;;;;;;6.65;5.00;;;18.80;60.60;;;;;;5016824;28;20219;-58
2022/10/03 04:39:50;;;;;;;6.90;4.68;;;18.70;60.50;;;;;;5010890;28;20200;-57
2022/10/03 04:42:26;;;;;;;6.40;5.03;;;18.80;60.80;;;;;;5033936;28;20211;-57
2022/10/03 04:45:13;;;;;;;6.50;4.18;;;18.70;60.80;;;;;;5016088;28;20211;-58
2022/10/03 04:47:43;;;;;;;6.28;4.75;;;18.70;60.80;;;;;;5033767;28;20195;-57
2022/10/03 04:50:19;;;;;;;5.47;4.47;;;18.70;60.90;;;;;;5033906;28;20176;-57
2022/10/03 04:52:50;;;;;;;7.28;4.22;;;18.60;60.70;;;;;;5015931;28;20258;-57
2022/10/03 04:55:21;;;;;;;6.13;4.40;;;18.70;60.90;;;;;;5015741;28;20314;-57
2022/10/03 04:57:52;;;;;;;5.03;4.47;;;18.60;60.80;;;;;;5015678;28;20377;-57
2022/10/03 05:00:23;;;;;;;5.40;4.32;;;18.60;60.80;;;;;;5033380;28;20188;-57
2022/10/03 05:02:54;;;;;;;5.60;4.53;;;18.60;60.90;;;;;;5015393;28;20208;-57
2022/10/03 05:05:33;;;;;;;5.22;4.10;;;18.60;61.00;;;;;;5033164;28;20188;-57
2022/10/03 05:08:06;;;;;;;5.93;4.68;;;18.60;61.10;;;;;;5033169;28;20263;-57
2022/10/03 05:10:51;;;;;;;5.22;4.47;;;18.60;61.00;;;;;;5015561;28;20200;-57
2022/10/03 05:13:19;;;;;;;6.78;4.18;;;18.60;61.20;;;;;;5033106;28;20263;-58
2022/10/03 05:15:54;;;;;;;5.80;4.20;;;18.60;61.30;;;;;;5033268;28;20755;-57
2022/10/03 05:18:23;;;;;;;5.10;4.57;;;18.50;61.20;;;;;;5033360;28;20210;-56
2022/10/03 05:20:54;;;;;;;5.82;4.47;;;18.50;61.20;;;;;;5033059;28;20192;-57
2022/10/03 05:23:30;;;;;;;6.00;4.53;;;18.50;61.30;;;;;;5032937;28;20200;-57
2022/10/03 05:26:01;;;;;;;6.15;4.63;;;18.50;61.30;;;;;;5032976;28;20581;-57
2022/10/03 05:28:37;;;;;;;5.45;4.13;;;18.50;61.40;;;;;;5033245;28;20412;-57
2022/10/03 05:31:12;;;;;;;5.22;3.80;;;18.50;61.40;;;;;;5031980;28;20204;-57
2022/10/03 05:33:43;;;;;;;6.82;4.20;;;18.50;61.50;;;;;;5031941;28;20287;-58
2022/10/03 05:36:15;;;;;;;4.97;4.13;;;18.50;61.50;;;;;;5032959;28;20219;-57
2022/10/03 05:39:20;;;;;;;4.93;4.10;;;18.50;61.40;;;;;;5015118;28;20227;-57
2022/10/03 05:41:53;;;;;;;5.63;4.00;;;18.50;61.50;;;;;;5033061;28;20208;-57
2022/10/03 05:44:25;;;;;;;4.85;4.28;;;18.40;61.40;;;;;;5032644;28;20250;-57
2022/10/03 05:46:59;;;;;;;5.35;3.88;;;18.50;61.50;;;;;;5032876;28;20203;-57
2022/10/03 05:49:35;;;;;;;6.10;4.43;;;18.40;61.30;;;;;;5032683;28;20558;-57
2022/10/03 05:52:18;;;;;;;5.95;4.18;;;18.40;61.40;;;;;;5014935;28;20245;-57
2022/10/03 05:55:11;;;;;;;5.10;4.18;;;18.40;61.30;;;;;;5032688;28;20176;-57
2022/10/03 05:57:54;;;;;;;6.22;4.30;;;18.40;61.40;;;;;;5044978;22;20696;-78
2022/10/03 06:00:21;;;;;;;4.97;4.20;;;18.40;61.40;;;;;;4997500;28;20675;-78
2022/10/03 06:03:03;;;;;;;4.82;4.03;;;18.40;61.20;;;;;;4997112;28;20213;-78
2022/10/03 06:05:31;;;;;;;5.72;4.38;;;18.40;61.10;;;;;;4997810;28;20620;-78
2022/10/03 06:08:22;;;;;;;6.57;4.18;;;18.40;61.20;;;;;;4997181;28;20196;-78
2022/10/03 06:10:51;;;;;;;5.00;4.20;;;18.40;61.30;;;;;;4996567;28;20196;-78
2022/10/03 06:13:21;;;;;;;4.32;3.78;;;18.40;61.30;;;;;;4996409;28;20217;-78
2022/10/03 06:15:57;;;;;;;6.07;4.20;;;18.50;61.40;;;;;;4996315;28;20197;-78
2022/10/03 06:18:49;;;;;;;4.88;3.90;;;18.50;61.40;;;;;;4996034;28;20203;-78
2022/10/03 06:21:40;;;;;;;8.30;4.28;;;18.60;61.30;;;;;;4987708;28;20205;-78
2022/10/03 06:24:35;;;;;;;6.10;4.10;;;18.60;60.90;;;;;;4996951;28;20685;-78
2022/10/03 06:27:18;;;;;;;6.07;4.20;;;18.70;61.00;;;;;;4994589;28;20216;-78
2022/10/03 06:30:04;;;;;;;6.30;4.10;;;18.60;60.70;;;;;;4996654;28;20189;-78
2022/10/03 06:33:18;;;;;;;4.85;4.20;;;18.60;60.60;;;;;;4996293;28;20229;-78
2022/10/03 06:36:28;;;;;;;7.47;5.03;;;18.70;60.60;;;;;;4996427;28;20275;-78
2022/10/03 06:39:37;;;;;;;6.57;4.47;;;18.70;60.50;;;;;;4958773;28;20279;-78
2022/10/03 06:42:38;;;;;;;5.95;4.80;;;18.70;60.40;;;;;;4996672;28;20755;-78
2022/10/03 06:45:46;;;;;;;5.35;4.85;;;18.70;60.40;;;;;;4996569;28;20635;-78
2022/10/03 06:48:27;;;;;;;5.22;4.72;;;18.70;60.40;;;;;;5014321;28;20192;-78
2022/10/03 06:50:58;;;;;;;6.28;4.88;;;18.70;60.20;;;;;;4996428;28;20197;-78
2022/10/03 06:53:50;;;;;;;5.47;4.60;;;18.70;60.20;;;;;;4996540;28;20616;-78
2022/10/03 06:56:41;;;;;;;6.00;4.75;;;18.80;60.30;;;;;;4996152;28;20193;-78
2022/10/03 06:59:30;;;;;;;6.10;4.68;;;18.80;60.20;;;;;;4996314;28;20227;-77
2022/10/03 07:02:35;;;;;;;5.95;5.07;;;18.80;60.30;;;;;;4993306;28;20243;-77
2022/10/03 07:05:37;;;;;;;5.28;4.78;;;18.80;60.20;;;;;;5017084;28;20204;-78
2022/10/03 07:08:40;;;;;;;6.30;5.20;;;18.80;60.10;;;;;;5017456;28;20207;-78
2022/10/03 07:11:33;;;;;;;5.57;4.93;;;18.80;60.10;;;;;;5000006;28;20579;-78
2022/10/03 07:14:39;;;;;;;5.68;5.07;;;18.80;60.10;;;;;;4999711;28;20216;-78
2022/10/03 07:17:18;;;;;;;5.70;5.10;;;18.80;60.10;;;;;;4991329;28;20208;-78
2022/10/03 07:20:19;;;;;;;6.07;4.90;;;18.80;60.20;;;;;;4999444;28;20637;-78
2022/10/03 07:23:15;;;;;;;8.45;6.18;;;18.80;60.20;;;;;;4995933;28;20220;-78
2022/10/03 07:26:07;;;;;;;5.47;4.97;;;18.80;60.10;;;;;;4999985;28;20255;-78
2022/10/03 07:29:16;;;;;;;5.43;4.70;;;18.80;60.20;;;;;;4999584;28;20204;-78
2022/10/03 07:31:50;;;;;;;5.72;4.80;;;18.80;60.10;;;;;;4995898;28;20220;-78
2022/10/03 07:34:57;;;;;;;5.28;4.78;;;18.80;60.10;;;;;;5016659;28;20184;-78
2022/10/03 07:41:01;;;;;;;5.03;4.38;;;18.80;60.00;;;;;;4999188;28;20196;-78
2022/10/03 07:43:44;;;;;;;5.03;4.50;;;18.80;60.00;;;;;;4994305;28;20223;-78
2022/10/03 07:46:33;;;;;;;5.80;4.22;;;18.90;60.10;;;;;;4999134;28;20203;-78
2022/10/03 07:49:14;;;;;;;6.15;4.78;;;18.90;60.00;;;;;;5016871;28;20280;-78
2022/10/03 07:51:42;;;;;;;5.70;4.82;;;18.90;60.00;;;;;;4999106;28;20197;-78
2022/10/03 07:54:46;;;;;;;6.55;5.25;;;18.90;59.90;;;;;;4999011;28;20291;-77
2022/10/03 07:57:44;;;;;;;5.70;5.18;;;18.90;59.80;;;;;;4998946;28;20193;-78
2022/10/03 08:00:23;;;;;;;6.13;5.03;;;19.00;59.90;;;;;;4997258;28;20201;-77
2022/10/03 08:03:16;;;;;;;5.88;4.97;;;19.00;59.70;;;;;;4999263;28;20236;-77
2022/10/03 08:05:55;;;;;;;6.10;4.90;;;19.00;59.60;;;;;;4998589;28;20209;-78
2022/10/03 08:08:42;;;;;;;6.55;5.20;;;19.00;59.60;;;;;;4998795;28;20195;-78
2022/10/03 08:11:24;;;;;;;5.68;4.90;;;19.00;59.50;;;;;;4998683;28;20203;-78
2022/10/03 08:14:08;;;;;;;6.70;5.50;;;19.00;59.40;;;;;;4998084;28;20225;-77
2022/10/03 08:17:03;;;;;;;6.47;5.88;;;19.00;59.40;;;;;;4998856;28;20196;-77
2022/10/03 08:19:39;;;;;;;5.80;5.20;;;19.10;59.50;;;;;;4998504;28;20197;-77
2022/10/03 08:22:10;;;;;;;6.40;4.97;;;19.10;59.40;;;;;;5000486;28;20243;-77
2022/10/03 08:25:02;;;;;;;6.57;4.90;;;19.20;59.40;;;;;;4999102;28;20213;-77
2022/10/03 08:27:40;;;;;;;6.35;4.72;;;19.20;59.30;;;;;;5002135;28;20185;-78
2022/10/03 08:30:19;;;;;;;5.57;4.78;;;19.20;59.10;;;;;;4998582;28;20200;-78
2022/10/03 08:32:59;;;;;;;5.82;4.60;;;19.30;59.00;;;;;;4998343;28;20216;-77
2022/10/03 08:35:56;;;;;;;5.78;4.10;;;19.40;58.80;;;;;;4998247;28;20185;-78
2022/10/03 08:39:03;;;;;;;4.93;4.00;;;19.40;58.50;;;;;;4998287;28;20291;-76
2022/10/03 08:41:54;;;;;;;5.60;3.88;;;19.60;58.60;;;;;;4981387;28;20200;-78
2022/10/03 08:45:00;;;;;;;5.43;4.03;;;19.70;58.60;;;;;;4997648;28;20219;-78
2022/10/03 08:48:09;;;;;;;5.50;3.80;;;19.80;58.20;;;;;;4998450;28;20657;-77
2022/10/03 08:51:03;;;;;;;4.00;3.40;;;19.80;58.20;;;;;;4997739;28;20200;-78
2022/10/03 08:53:52;;;;;;;5.63;3.70;;;19.80;58.10;;;;;;4997107;28;20719;-78
2022/10/03 08:56:21;;;;;;;5.35;3.30;;;19.80;58.20;;;;;;5014889;28;20187;-79
2022/10/03 08:59:26;;;;;;;4.95;3.65;;;19.80;58.30;;;;;;4996917;28;20236;-79
2022/10/03 09:02:29;;;;;;;7.25;4.07;;;19.80;58.40;;;;;;4997446;28;20224;-79
2022/10/03 09:05:27;;;;;;;11.77;4.28;;;19.80;58.30;;;;;;4997450;28;20220;-78
2022/10/03 09:08:34;;;;;;;8.05;3.85;;;19.90;58.30;;;;;;4995405;28;20454;-79
2022/10/03 09:11:47;;;;;;;32.70;12.10;;;19.90;58.30;;;;;;4969010;28;20671;-78
2022/10/03 09:14:37;;;;;;;155.75;60.33;;;19.90;58.70;;;;;;4997807;28;20207;-78
2022/10/03 09:17:36;;;;;;;101.13;41.90;;;20.00;60.20;;;;;;4997410;28;20204;-78
2022/10/03 09:20:32;;;;;;;69.82;30.23;;;20.00;60.50;;;;;;4997426;28;20287;-78
2022/10/03 09:23:08;;;;;;;77.72;34.60;;;20.10;60.00;;;;;;4996013;28;20720;-79
2022/10/03 09:25:59;;;;;;;81.43;32.80;;;20.10;60.40;;;;;;5013933;28;20204;-79
2022/10/03 09:28:50;;;;;;;72.15;31.13;;;20.10;60.00;;;;;;4997364;28;20602;-79
2022/10/03 09:31:30;;;;;;;73.10;32.50;;;20.20;60.60;;;;;;4997456;28;20185;-79
2022/10/03 09:34:07;;;;;;;69.57;29.63;;;20.20;59.80;;;;;;5020472;28;20236;-79
2022/10/03 09:37:00;;;;;;;62.13;25.98;;;20.30;59.40;;;;;;4997713;28;20192;-79
2022/10/03 09:39:57;;;;;;;55.72;24.70;;;20.30;59.00;;;;;;4997007;28;20288;-79
2022/10/03 09:43:01;;;;;;;53.13;24.52;;;20.30;58.80;;;;;;4986774;28;20217;-79
2022/10/03 09:46:00;;;;;;;60.58;25.98;;;20.30;58.80;;;;;;4997046;28;20212;-79
2022/10/03 09:49:06;;;;;;;50.63;24.27;;;20.30;59.10;;;;;;4996608;28;20209;-78
2022/10/03 09:51:35;;;;;;;49.88;23.35;;;20.30;59.30;;;;;;4980721;28;20197;-78
2022/10/03 09:54:48;;;;;;;49.97;21.85;;;20.30;58.80;;;;;;4996857;28;20192;-79
2022/10/03 09:57:46;;;;;;;46.17;20.80;;;20.40;58.90;;;;;;4996208;28;20246;-79
2022/10/03 10:00:21;;;;;;;38.72;18.95;;;20.50;58.40;;;;;;4996400;28;20641;-79
2022/10/03 10:03:28;;;;;;;40.60;21.13;;;20.60;57.90;;;;;;4996290;28;20216;-80
2022/10/03 10:06:18;;;;;;;39.95;18.40;;;20.70;57.60;;;;;;4996446;28;20251;-80
2022/10/03 10:09:22;;;;;;;39.80;18.38;;;20.90;58.00;;;;;;4996245;28;20193;-80
2022/10/03 10:12:31;;;;;;;38.08;19.40;;;20.90;57.40;;;;;;4938953;28;20202;-80
2022/10/03 10:15:38;;;;;;;39.47;19.75;;;21.00;57.30;;;;;;4996187;28;20188;-80
2022/10/03 10:18:35;;;;;;;34.45;17.42;;;21.00;57.10;;;;;;4996265;28;20199;-80
2022/10/03 10:21:48;;;;;;;31.80;16.67;;;21.00;57.10;;;;;;4972551;28;20285;-81
2022/10/03 10:25:11;;;;;;;32.80;18.50;;;21.00;57.00;;;;;;5014218;28;20216;-80
2022/10/03 10:28:08;;;;;;;35.00;16.60;;;21.00;57.10;;;;;;4997190;28;20550;-80
2022/10/03 10:31:04;;;;;;;29.90;15.23;;;21.10;56.90;;;;;;4996749;28;20267;-80
2022/10/03 10:34:03;;;;;;;31.98;16.10;;;21.10;56.40;;;;;;4996034;28;20216;-81
2022/10/03 10:37:18;;;;;;;30.25;15.68;;;21.30;56.20;;;;;;4997281;28;20251;-81
2022/10/03 10:40:21;;;;;;;28.27;15.10;;;21.40;55.90;;;;;;4951201;29;20211;-81
2022/10/03 10:43:26;;;;;;;30.88;15.63;;;21.40;56.30;;;;;;4994319;28;20244;-81
2022/10/03 10:46:10;;;;;;;26.35;14.68;;;21.40;55.70;;;;;;4999899;28;20256;-81
2022/10/03 10:49:10;;;;;;;33.42;15.52;;;21.50;55.60;;;;;;5001538;28;20287;-79
2022/10/03 10:52:22;;;;;;;31.00;15.02;;;21.50;55.40;;;;;;5018718;28;20181;-80
2022/10/03 10:55:46;;;;;;;32.78;14.27;;;21.50;55.90;;;;;;4960642;28;20240;-80
2022/10/03 10:58:49;;;;;;;28.13;14.07;;;21.60;55.80;;;;;;5016352;28;20201;-80
2022/10/03 11:01:41;;;;;;;25.45;14.13;;;21.60;55.70;;;;;;4998863;28;20227;-80
2022/10/03 11:04:51;;;;;;;27.02;14.13;;;21.70;55.60;;;;;;4999582;28;20201;-80
2022/10/03 11:07:58;;;;;;;26.20;14.30;;;21.60;55.60;;;;;;4992599;28;20230;-77
2022/10/03 11:10:33;;;;;;;30.05;14.13;;;21.70;55.60;;;;;;4968229;28;20632;-78
2022/10/03 11:13:26;;;;;;;25.48;13.20;;;21.70;55.80;;;;;;5004210;28;20244;-78
2022/10/03 11:16:28;;;;;;;26.25;14.07;;;21.60;55.60;;;;;;5002006;28;20641;-78
2022/10/03 11:19:42;;;;;;;27.48;13.52;;;21.60;55.70;;;;;;5001882;28;20205;-78
2022/10/03 11:22:36;;;;;;;26.15;13.35;;;21.60;55.70;;;;;;5002670;28;20216;-78
2022/10/03 11:25:39;;;;;;;23.17;12.57;;;21.60;55.80;;;;;;5000465;28;20447;-78
2022/10/03 11:28:29;;;;;;;24.45;12.60;;;21.60;55.40;;;;;;5004343;28;20196;-78
2022/10/03 11:31:27;;;;;;;24.02;10.95;;;21.60;55.60;;;;;;5000590;28;20232;-80
2022/10/03 11:34:37;;;;;;;18.67;10.23;;;21.60;55.80;;;;;;5002541;28;20700;-80
2022/10/03 11:37:09;;;;;;;16.88;9.07;;;21.60;55.60;;;;;;5007159;28;20193;-80
2022/10/03 11:39:43;;;;;;;20.67;10.73;;;21.60;55.00;;;;;;5005658;28;20221;-79
2022/10/03 11:42:20;;;;;;;20.90;10.02;;;21.70;55.10;;;;;;5004650;28;20239;-80
2022/10/03 11:44:50;;;;;;;20.10;9.90;;;21.70;55.20;;;;;;5003695;28;20201;-80
2022/10/03 11:47:39;;;;;;;18.17;10.48;;;21.70;55.00;;;;;;5004413;28;20196;-81
2022/10/03 11:50:43;;;;;;;22.73;9.98;;;21.70;55.00;;;;;;5004609;28;20216;-79
2022/10/03 11:53:48;;;;;;;22.75;11.18;;;21.70;55.00;;;;;;5001580;28;20221;-79
2022/10/03 11:56:31;;;;;;;21.88;11.13;;;21.70;55.00;;;;;;5000186;28;20216;-79
2022/10/03 11:59:11;;;;;;;18.88;9.77;;;21.70;55.00;;;;;;5018388;28;20199;-79
2022/10/03 12:01:45;;;;;;;19.38;9.63;;;21.60;54.70;;;;;;5000524;28;20208;-79
2022/10/03 12:04:17;;;;;;;18.23;9.65;;;21.60;54.70;;;;;;4999328;28;20553;-79
2022/10/03 12:09:56;;;;;;;20.80;9.60;;;21.50;54.50;;;;;;5001570;28;20196;-80
2022/10/03 12:12:29;;;;;;;18.17;9.63;;;21.50;54.70;;;;;;5000421;28;20248;-80
2022/10/03 12:14:59;;;;;;;17.58;8.73;;;21.50;54.90;;;;;;5000622;28;20185;-80
2022/10/03 12:17:29;;;;;;;16.67;7.70;;;21.50;55.00;;;;;;4999774;28;20201;-80
2022/10/03 12:20:02;;;;;;;16.45;7.55;;;21.50;54.50;;;;;;4999080;28;20653;-80
2022/10/03 12:22:44;;;;;;;17.20;8.65;;;21.40;54.50;;;;;;4998587;28;20216;-80
2022/10/03 12:25:20;;;;;;;16.38;8.30;;;21.40;54.50;;;;;;5000734;28;20326;-80
2022/10/03 12:27:52;;;;;;;16.73;8.27;;;21.40;54.80;;;;;;5001053;28;20192;-80
2022/10/03 12:30:20;;;;;;;15.00;7.88;;;21.40;54.90;;;;;;5000645;28;20197;-81
2022/10/03 12:32:57;;;;;;;16.70;7.82;;;21.40;54.90;;;;;;5000941;28;20569;-80
2022/10/03 12:35:33;;;;;;;16.48;7.72;;;21.40;54.90;;;;;;5018015;28;20200;-81
2022/10/03 12:38:07;;;;;;;14.82;8.10;;;21.40;54.90;;;;;;4999599;28;20401;-81
2022/10/03 12:40:39;;;;;;;15.65;7.32;;;21.40;54.80;;;;;;4999237;28;20283;-81
2022/10/03 12:43:13;;;;;;;14.45;7.90;;;21.40;54.70;;;;;;4998522;28;20287;-81
2022/10/03 12:45:42;;;;;;;15.60;7.45;;;21.40;55.40;;;;;;4998222;28;20270;-81
2022/10/03 12:48:36;;;;;;;15.98;8.05;;;21.40;55.10;;;;;;5016689;28;20193;-81
2022/10/03 12:51:08;;;;;;;12.55;7.22;;;21.40;55.00;;;;;;4998693;28;20575;-81
2022/10/03 12:53:40;;;;;;;15.98;7.18;;;21.30;54.70;;;;;;4998218;28;20229;-81
2022/10/03 12:56:14;;;;;;;15.38;7.80;;;21.30;54.90;;;;;;4997985;28;20192;-81
2022/10/03 12:58:54;;;;;;;13.13;7.07;;;21.20;54.80;;;;;;4997437;28;20588;-81
2022/10/03 13:01:27;;;;;;;16.52;7.75;;;21.20;54.80;;;;;;4998323;28;20296;-81
2022/10/03 13:03:54;;;;;;;10.80;6.18;;;21.20;55.00;;;;;;4999654;28;20642;-81
2022/10/03 13:06:40;;;;;;;11.88;6.75;;;21.30;54.70;;;;;;5016481;28;20228;-79
2022/10/03 13:09:15;;;;;;;12.77;6.75;;;21.20;54.60;;;;;;5014587;28;20192;-80
2022/10/03 13:11:50;;;;;;;11.82;6.40;;;21.20;54.60;;;;;;5000405;28;20204;-79
2022/10/03 13:14:27;;;;;;;11.15;6.72;;;21.20;54.70;;;;;;5000208;28;20551;-79
2022/10/03 13:17:00;;;;;;;11.45;6.68;;;21.20;54.80;;;;;;4999444;28;20181;-79
2022/10/03 13:19:28;;;;;;;12.77;7.13;;;21.20;54.90;;;;;;4999113;28;20213;-79
2022/10/03 13:22:05;;;;;;;16.00;6.78;;;21.20;55.20;;;;;;5015738;28;20272;-78
2022/10/03 13:24:35;;;;;;;14.18;6.80;;;21.20;54.70;;;;;;5000583;28;20232;-79
2022/10/03 13:27:16;;;;;;;13.80;6.63;;;21.20;54.80;;;;;;5000877;28;20216;-79
2022/10/03 13:29:45;;;;;;;13.30;6.70;;;21.20;54.90;;;;;;5000173;28;20192;-79
2022/10/03 13:32:35;;;;;;;13.68;6.25;;;21.20;55.00;;;;;;4998968;28;20348;-79
2022/10/03 13:38:27;;;;;;;10.48;5.85;;;21.20;55.00;;;;;;5001480;28;20196;-79
2022/10/03 13:40:57;;;;;;;11.55;5.90;;;21.20;54.90;;;;;;4991628;28;20267;-79
2022/10/03 13:43:33;;;;;;;10.15;5.80;;;21.20;54.90;;;;;;5000857;28;20681;-79
2022/10/03 13:46:02;;;;;;;12.27;5.97;;;21.20;54.80;;;;;;5000153;28;20316;-79
2022/10/03 13:48:30;;;;;;;10.13;5.75;;;21.20;54.50;;;;;;5000333;28;20220;-79
2022/10/03 13:51:00;;;;;;;11.60;6.10;;;21.20;54.40;;;;;;5000638;28;20204;-79
2022/10/03 13:54:03;;;;;;;10.95;5.68;;;21.20;54.80;;;;;;4999704;28;20220;-79
2022/10/03 13:56:44;;;;;;;11.65;5.85;;;21.20;56.60;;;;;;4996608;28;20196;-79
2022/10/03 13:59:23;;;;;;;9.40;5.10;;;21.10;57.10;;;;;;4998147;28;20223;-79
2022/10/03 14:01:53;;;;;;;10.27;5.22;;;21.10;56.90;;;;;;5002966;28;20192;-79
2022/10/03 14:04:38;;;;;;;9.43;4.93;;;21.10;57.00;;;;;;5000990;28;20243;-79
2022/10/03 14:07:10;;;;;;;8.00;4.88;;;21.10;56.70;;;;;;5000321;28;20311;-79
2022/10/03 14:09:50;;;;;;;9.73;5.70;;;21.10;56.60;;;;;;4997936;28;20223;-80
2022/10/03 14:12:22;;;;;;;11.43;5.15;;;21.10;57.20;;;;;;5002517;28;20220;-78
2022/10/03 14:15:09;;;;;;;9.70;5.30;;;21.10;58.00;;;;;;5003590;28;20192;-78
2022/10/03 14:17:39;;;;;;;9.23;5.25;;;21.10;57.90;;;;;;5001985;28;20207;-78
2022/10/03 14:20:14;;;;;;;9.95;5.38;;;21.10;57.80;;;;;;5001425;28;20253;-79
2022/10/03 14:22:48;;;;;;;13.45;5.03;;;21.10;57.80;;;;;;5001061;28;20226;-79